sensor_id;sensor_type;location;lat;lon;timestamp;temperature;humidity
16767;DHT22;8501;49.926;8.404;2023-11-21T00:01:27;10.30;99.90
16767;DHT22;8501;49.926;8.404;2023-11-21T00:03:52;10.20;99.90
16767;DHT22;8501;49.926;8.404;2023-11-21T00:06:20;10.30;99.90
16767;DHT22;8501;49.926;8.404;2023-11-21T00:08:46;10.20;99.90
16767;DHT22;8501;49.926;8.404;2023-11-21T00:11:15;10.20;99.90
16767;DHT22;8501;49.926;8.404;2023-11-21T00:13:41;10.20;99.90
16767;DHT22;8501;49.926;8.404;2023-11-21T00:16:07;10.20;99.90
16767;DHT22;8501;49.926;8.404;2023-11-21T00:18:32;10.20;99.90
16767;DHT22;8501;49.926;8.404;2023-11-21T00:20:58;10.20;99.90
16767;DHT22;8501;49.926;8.404;2023-11-21T00:23:24;10.10;99.90
16767;DHT22;8501;49.926;8.404;2023-11-21T00:25:50;10.10;99.90
16767;DHT22;8501;49.926;8.404;2023-11-21T00:28:16;10.20;99.90
16767;DHT22;8501;49.926;8.404;2023-11-21T00:30:42;10.10;99.90
16767;DHT22;8501;49.926;8.404;2023-11-21T00:33:07;10.20;99.90
16767;DHT22;8501;49.926;8.404;2023-11-21T00:35:33;10.20;99.90
16767;DHT22;8501;49.926;8.404;2023-11-21T00:37:58;10.10;99.90
16767;DHT22;8501;49.926;8.404;2023-11-21T00:40:24;10.10;99.90
16767;DHT22;8501;49.926;8.404;2023-11-21T00:42:50;10.20;99.90
16767;DHT22;8501;49.926;8.404;2023-11-21T00:45:15;10.20;99.90
16767;DHT22;8501;49.926;8.404;2023-11-21T00:47:41;10.20;99.90
16767;DHT22;8501;49.926;8.404;2023-11-21T00:50:08;10.20;99.90
16767;DHT22;8501;49.926;8.404;2023-11-21T00:52:34;10.20;99.90
16767;DHT22;8501;49.926;8.404;2023-11-21T00:54:59;10.20;99.90
16767;DHT22;8501;49.926;8.404;2023-11-21T00:57:26;10.20;99.90
16767;DHT22;8501;49.926;8.404;2023-11-21T00:59:51;10.20;99.90
16767;DHT22;8501;49.926;8.404;2023-11-21T01:02:17;10.20;99.90
16767;DHT22;8501;49.926;8.404;2023-11-21T01:04:43;10.20;99.90
16767;DHT22;8501;49.926;8.404;2023-11-21T01:07:09;10.20;99.90
16767;DHT22;8501;49.926;8.404;2023-11-21T01:09:34;10.20;99.90
16767;DHT22;8501;49.926;8.404;2023-11-21T01:12:00;10.10;99.90
16767;DHT22;8501;49.926;8.404;2023-11-21T01:14:26;10.20;99.90
16767;DHT22;8501;49.926;8.404;2023-11-21T01:16:52;10.20;99.90
16767;DHT22;8501;49.926;8.404;2023-11-21T01:19:18;10.20;99.90
16767;DHT22;8501;49.926;8.404;2023-11-21T01:21:43;10.20;99.90
16767;DHT22;8501;49.926;8.404;2023-11-21T01:24:09;10.10;99.90
16767;DHT22;8501;49.926;8.404;2023-11-21T01:26:34;10.20;99.90
16767;DHT22;8501;49.926;8.404;2023-11-21T01:29:00;10.10;99.90
16767;DHT22;8501;49.926;8.404;2023-11-21T01:31:25;10.10;99.90
16767;DHT22;8501;49.926;8.404;2023-11-21T01:33:55;10.20;99.90
16767;DHT22;8501;49.926;8.404;2023-11-21T01:36:20;10.20;99.90
16767;DHT22;8501;49.926;8.404;2023-11-21T01:38:46;10.10;99.90
16767;DHT22;8501;49.926;8.404;2023-11-21T01:41:13;10.20;99.90
16767;DHT22;8501;49.926;8.404;2023-11-21T01:43:39;10.20;99.90
16767;DHT22;8501;49.926;8.404;2023-11-21T01:46:05;10.20;99.90
16767;DHT22;8501;49.926;8.404;2023-11-21T01:48:31;10.20;99.90
16767;DHT22;8501;49.926;8.404;2023-11-21T01:50:58;10.20;99.90
16767;DHT22;8501;49.926;8.404;2023-11-21T01:53:25;10.20;99.90
16767;DHT22;8501;49.926;8.404;2023-11-21T01:55:51;10.20;99.90
16767;DHT22;8501;49.926;8.404;2023-11-21T01:58:17;10.10;99.90
16767;DHT22;8501;49.926;8.404;2023-11-21T02:00:43;10.20;99.90
16767;DHT22;8501;49.926;8.404;2023-11-21T02:03:09;10.20;99.90
16767;DHT22;8501;49.926;8.404;2023-11-21T02:05:35;10.20;99.90
16767;DHT22;8501;49.926;8.404;2023-11-21T02:08:02;10.20;99.90
16767;DHT22;8501;49.926;8.404;2023-11-21T02:10:30;10.10;99.90
16767;DHT22;8501;49.926;8.404;2023-11-21T02:12:56;10.10;99.90
16767;DHT22;8501;49.926;8.404;2023-11-21T02:15:22;10.10;99.90
16767;DHT22;8501;49.926;8.404;2023-11-21T02:17:51;10.20;99.90
16767;DHT22;8501;49.926;8.404;2023-11-21T02:20:22;10.20;99.90
16767;DHT22;8501;49.926;8.404;2023-11-21T02:22:53;10.10;99.90
16767;DHT22;8501;49.926;8.404;2023-11-21T02:25:31;10.20;99.90
16767;DHT22;8501;49.926;8.404;2023-11-21T02:28:02;10.20;99.90
16767;DHT22;8501;49.926;8.404;2023-11-21T02:30:28;10.10;99.90
16767;DHT22;8501;49.926;8.404;2023-11-21T02:32:54;10.10;99.90
16767;DHT22;8501;49.926;8.404;2023-11-21T02:35:20;10.10;99.90
16767;DHT22;8501;49.926;8.404;2023-11-21T02:37:47;10.00;99.90
16767;DHT22;8501;49.926;8.404;2023-11-21T02:40:12;10.10;99.90
16767;DHT22;8501;49.926;8.404;2023-11-21T02:42:41;10.20;99.90
16767;DHT22;8501;49.926;8.404;2023-11-21T02:45:07;10.20;99.90
16767;DHT22;8501;49.926;8.404;2023-11-21T02:47:33;10.20;99.90
16767;DHT22;8501;49.926;8.404;2023-11-21T02:49:59;10.10;99.90
16767;DHT22;8501;49.926;8.404;2023-11-21T02:52:25;10.20;99.90
16767;DHT22;8501;49.926;8.404;2023-11-21T02:54:50;10.10;99.90
16767;DHT22;8501;49.926;8.404;2023-11-21T02:57:16;10.10;99.90
16767;DHT22;8501;49.926;8.404;2023-11-21T02:59:42;10.10;99.90
16767;DHT22;8501;49.926;8.404;2023-11-21T03:02:07;10.10;99.90
16767;DHT22;8501;49.926;8.404;2023-11-21T03:04:35;10.10;99.90
16767;DHT22;8501;49.926;8.404;2023-11-21T03:07:01;10.10;99.90
16767;DHT22;8501;49.926;8.404;2023-11-21T03:09:27;10.10;99.90
16767;DHT22;8501;49.926;8.404;2023-11-21T03:11:53;10.10;99.90
16767;DHT22;8501;49.926;8.404;2023-11-21T03:14:19;10.10;99.90
16767;DHT22;8501;49.926;8.404;2023-11-21T03:16:44;10.10;99.90
16767;DHT22;8501;49.926;8.404;2023-11-21T03:19:11;10.10;99.90
16767;DHT22;8501;49.926;8.404;2023-11-21T03:21:36;10.10;99.90
16767;DHT22;8501;49.926;8.404;2023-11-21T03:24:02;10.10;99.90
16767;DHT22;8501;49.926;8.404;2023-11-21T03:26:28;10.00;99.90
16767;DHT22;8501;49.926;8.404;2023-11-21T03:28:55;10.10;99.90
16767;DHT22;8501;49.926;8.404;2023-11-21T03:31:21;10.10;99.90
16767;DHT22;8501;49.926;8.404;2023-11-21T03:33:46;10.10;99.90
16767;DHT22;8501;49.926;8.404;2023-11-21T03:36:13;10.10;99.90
16767;DHT22;8501;49.926;8.404;2023-11-21T03:38:40;10.10;99.90
16767;DHT22;8501;49.926;8.404;2023-11-21T03:41:06;10.10;99.90
16767;DHT22;8501;49.926;8.404;2023-11-21T03:43:31;10.10;99.90
16767;DHT22;8501;49.926;8.404;2023-11-21T03:45:57;10.10;99.90
16767;DHT22;8501;49.926;8.404;2023-11-21T03:48:22;10.10;99.90
16767;DHT22;8501;49.926;8.404;2023-11-21T03:50:48;10.10;99.90
16767;DHT22;8501;49.926;8.404;2023-11-21T03:53:14;10.10;99.90
16767;DHT22;8501;49.926;8.404;2023-11-21T03:55:39;10.10;99.90
16767;DHT22;8501;49.926;8.404;2023-11-21T03:58:05;10.10;99.90
16767;DHT22;8501;49.926;8.404;2023-11-21T04:00:31;10.10;99.90
16767;DHT22;8501;49.926;8.404;2023-11-21T04:02:57;10.10;99.90
16767;DHT22;8501;49.926;8.404;2023-11-21T04:05:23;10.10;99.90
16767;DHT22;8501;49.926;8.404;2023-11-21T04:07:49;10.10;99.90
16767;DHT22;8501;49.926;8.404;2023-11-21T04:10:16;10.00;99.90
16767;DHT22;8501;49.926;8.404;2023-11-21T04:12:42;10.10;99.90
16767;DHT22;8501;49.926;8.404;2023-11-21T04:15:08;10.00;99.90
16767;DHT22;8501;49.926;8.404;2023-11-21T04:17:34;10.00;99.90
16767;DHT22;8501;49.926;8.404;2023-11-21T04:20:00;10.10;99.90
16767;DHT22;8501;49.926;8.404;2023-11-21T04:22:26;10.00;99.90
16767;DHT22;8501;49.926;8.404;2023-11-21T04:24:51;10.00;99.90
16767;DHT22;8501;49.926;8.404;2023-11-21T04:27:17;10.10;99.90
16767;DHT22;8501;49.926;8.404;2023-11-21T04:29:43;10.00;99.90
16767;DHT22;8501;49.926;8.404;2023-11-21T04:32:09;10.00;99.90
16767;DHT22;8501;49.926;8.404;2023-11-21T04:34:35;10.00;99.90
16767;DHT22;8501;49.926;8.404;2023-11-21T04:37:00;10.00;99.90
16767;DHT22;8501;49.926;8.404;2023-11-21T04:39:26;10.00;99.90
16767;DHT22;8501;49.926;8.404;2023-11-21T04:41:52;10.00;99.90
16767;DHT22;8501;49.926;8.404;2023-11-21T04:44:17;10.00;99.90
16767;DHT22;8501;49.926;8.404;2023-11-21T04:46:43;10.00;99.90
16767;DHT22;8501;49.926;8.404;2023-11-21T04:49:08;10.00;99.90
16767;DHT22;8501;49.926;8.404;2023-11-21T04:51:36;10.00;99.90
16767;DHT22;8501;49.926;8.404;2023-11-21T04:54:01;10.00;99.90
16767;DHT22;8501;49.926;8.404;2023-11-21T04:56:27;10.00;99.90
16767;DHT22;8501;49.926;8.404;2023-11-21T04:58:54;10.00;99.90
16767;DHT22;8501;49.926;8.404;2023-11-21T05:01:19;10.10;99.90
16767;DHT22;8501;49.926;8.404;2023-11-21T05:03:45;10.00;99.90
16767;DHT22;8501;49.926;8.404;2023-11-21T05:06:13;10.00;99.90
16767;DHT22;8501;49.926;8.404;2023-11-21T05:08:39;10.00;99.90
16767;DHT22;8501;49.926;8.404;2023-11-21T05:11:05;10.00;99.90
16767;DHT22;8501;49.926;8.404;2023-11-21T05:13:34;10.00;99.90
16767;DHT22;8501;49.926;8.404;2023-11-21T05:15:59;10.00;99.90
16767;DHT22;8501;49.926;8.404;2023-11-21T05:18:25;10.00;99.90
16767;DHT22;8501;49.926;8.404;2023-11-21T05:20:55;10.00;99.90
16767;DHT22;8501;49.926;8.404;2023-11-21T05:23:21;10.00;99.90
16767;DHT22;8501;49.926;8.404;2023-11-21T05:25:46;10.00;99.90
16767;DHT22;8501;49.926;8.404;2023-11-21T05:28:12;10.00;99.90
16767;DHT22;8501;49.926;8.404;2023-11-21T05:30:38;10.00;99.90
16767;DHT22;8501;49.926;8.404;2023-11-21T05:33:06;10.00;99.90
16767;DHT22;8501;49.926;8.404;2023-11-21T05:35:32;10.00;99.90
16767;DHT22;8501;49.926;8.404;2023-11-21T05:37:57;10.00;99.90
16767;DHT22;8501;49.926;8.404;2023-11-21T05:40:23;10.00;99.90
16767;DHT22;8501;49.926;8.404;2023-11-21T05:42:49;10.00;99.90
16767;DHT22;8501;49.926;8.404;2023-11-21T05:45:17;10.00;99.90
16767;DHT22;8501;49.926;8.404;2023-11-21T05:47:45;10.00;99.90
16767;DHT22;8501;49.926;8.404;2023-11-21T05:50:13;10.00;99.90
16767;DHT22;8501;49.926;8.404;2023-11-21T05:52:45;10.00;99.90
16767;DHT22;8501;49.926;8.404;2023-11-21T05:55:11;10.00;99.90
16767;DHT22;8501;49.926;8.404;2023-11-21T05:57:39;10.00;99.90
16767;DHT22;8501;49.926;8.404;2023-11-21T06:00:13;9.90;99.90
16767;DHT22;8501;49.926;8.404;2023-11-21T06:02:52;9.90;99.90
16767;DHT22;8501;49.926;8.404;2023-11-21T06:05:23;9.90;99.90
16767;DHT22;8501;49.926;8.404;2023-11-21T06:07:49;9.90;99.90
16767;DHT22;8501;49.926;8.404;2023-11-21T06:10:15;9.90;99.90
16767;DHT22;8501;49.926;8.404;2023-11-21T06:12:43;9.90;99.90
16767;DHT22;8501;49.926;8.404;2023-11-21T06:15:09;9.90;99.90
16767;DHT22;8501;49.926;8.404;2023-11-21T06:17:38;9.90;99.90
16767;DHT22;8501;49.926;8.404;2023-11-21T06:20:06;9.90;99.90
16767;DHT22;8501;49.926;8.404;2023-11-21T06:22:42;9.90;99.90
16767;DHT22;8501;49.926;8.404;2023-11-21T06:25:08;9.90;99.90
16767;DHT22;8501;49.926;8.404;2023-11-21T06:27:44;9.90;99.90
16767;DHT22;8501;49.926;8.404;2023-11-21T06:30:10;9.90;99.90
16767;DHT22;8501;49.926;8.404;2023-11-21T06:32:37;9.90;99.90
16767;DHT22;8501;49.926;8.404;2023-11-21T06:35:04;9.90;99.90
16767;DHT22;8501;49.926;8.404;2023-11-21T06:37:30;9.90;99.90
16767;DHT22;8501;49.926;8.404;2023-11-21T06:39:57;9.90;99.90
16767;DHT22;8501;49.926;8.404;2023-11-21T06:42:24;9.90;99.90
16767;DHT22;8501;49.926;8.404;2023-11-21T06:44:49;9.90;99.90
16767;DHT22;8501;49.926;8.404;2023-11-21T06:47:17;9.90;99.90
16767;DHT22;8501;49.926;8.404;2023-11-21T06:49:43;9.90;99.90
16767;DHT22;8501;49.926;8.404;2023-11-21T06:52:09;9.90;99.90
16767;DHT22;8501;49.926;8.404;2023-11-21T06:54:34;9.90;99.90
16767;DHT22;8501;49.926;8.404;2023-11-21T06:57:02;9.90;99.90
16767;DHT22;8501;49.926;8.404;2023-11-21T06:59:31;9.90;99.90
16767;DHT22;8501;49.926;8.404;2023-11-21T07:01:57;9.90;99.90
16767;DHT22;8501;49.926;8.404;2023-11-21T07:04:22;9.90;99.90
16767;DHT22;8501;49.926;8.404;2023-11-21T07:06:47;9.90;99.90
16767;DHT22;8501;49.926;8.404;2023-11-21T07:09:13;9.90;99.90
16767;DHT22;8501;49.926;8.404;2023-11-21T07:11:38;9.90;99.90
16767;DHT22;8501;49.926;8.404;2023-11-21T07:14:04;9.90;99.90
16767;DHT22;8501;49.926;8.404;2023-11-21T07:16:36;9.90;99.90
16767;DHT22;8501;49.926;8.404;2023-11-21T07:19:04;9.90;99.90
16767;DHT22;8501;49.926;8.404;2023-11-21T07:21:34;9.90;99.90
16767;DHT22;8501;49.926;8.404;2023-11-21T07:24:00;9.90;99.90
16767;DHT22;8501;49.926;8.404;2023-11-21T07:26:29;9.90;99.90
16767;DHT22;8501;49.926;8.404;2023-11-21T07:28:54;9.90;99.90
16767;DHT22;8501;49.926;8.404;2023-11-21T07:31:21;9.90;99.90
16767;DHT22;8501;49.926;8.404;2023-11-21T07:33:47;9.90;99.90
16767;DHT22;8501;49.926;8.404;2023-11-21T07:36:13;9.90;99.90
16767;DHT22;8501;49.926;8.404;2023-11-21T07:38:39;9.90;99.90
16767;DHT22;8501;49.926;8.404;2023-11-21T07:41:05;9.90;99.90
16767;DHT22;8501;49.926;8.404;2023-11-21T07:43:34;9.90;99.90
16767;DHT22;8501;49.926;8.404;2023-11-21T07:46:04;9.90;99.90
16767;DHT22;8501;49.926;8.404;2023-11-21T07:48:33;9.90;99.90
16767;DHT22;8501;49.926;8.404;2023-11-21T07:51:00;9.90;99.90
16767;DHT22;8501;49.926;8.404;2023-11-21T07:53:26;9.90;99.90
16767;DHT22;8501;49.926;8.404;2023-11-21T07:55:54;9.90;99.90
16767;DHT22;8501;49.926;8.404;2023-11-21T07:58:19;9.90;99.90
16767;DHT22;8501;49.926;8.404;2023-11-21T08:00:45;10.00;99.90
16767;DHT22;8501;49.926;8.404;2023-11-21T08:03:10;9.90;99.90
16767;DHT22;8501;49.926;8.404;2023-11-21T08:05:36;9.90;99.90
16767;DHT22;8501;49.926;8.404;2023-11-21T08:08:02;10.00;99.90
16767;DHT22;8501;49.926;8.404;2023-11-21T08:10:27;10.00;99.90
16767;DHT22;8501;49.926;8.404;2023-11-21T08:12:53;10.00;99.90
16767;DHT22;8501;49.926;8.404;2023-11-21T08:15:19;10.00;99.90
16767;DHT22;8501;49.926;8.404;2023-11-21T08:17:44;10.00;99.90
16767;DHT22;8501;49.926;8.404;2023-11-21T08:20:10;10.00;99.90
16767;DHT22;8501;49.926;8.404;2023-11-21T08:22:36;10.10;99.90
16767;DHT22;8501;49.926;8.404;2023-11-21T08:25:02;10.10;99.90
16767;DHT22;8501;49.926;8.404;2023-11-21T08:27:29;10.00;99.90
16767;DHT22;8501;49.926;8.404;2023-11-21T08:29:55;10.10;99.90
16767;DHT22;8501;49.926;8.404;2023-11-21T08:32:21;10.10;99.90
16767;DHT22;8501;49.926;8.404;2023-11-21T08:34:47;10.10;99.90
16767;DHT22;8501;49.926;8.404;2023-11-21T08:37:16;10.10;99.90
16767;DHT22;8501;49.926;8.404;2023-11-21T08:39:43;10.10;99.90
16767;DHT22;8501;49.926;8.404;2023-11-21T08:42:08;10.20;99.90
16767;DHT22;8501;49.926;8.404;2023-11-21T08:44:34;10.20;99.90
16767;DHT22;8501;49.926;8.404;2023-11-21T08:46:59;10.20;99.90
16767;DHT22;8501;49.926;8.404;2023-11-21T08:49:25;10.20;99.90
16767;DHT22;8501;49.926;8.404;2023-11-21T08:51:53;10.20;99.90
16767;DHT22;8501;49.926;8.404;2023-11-21T08:54:20;10.20;99.90
16767;DHT22;8501;49.926;8.404;2023-11-21T08:56:46;10.20;99.90
16767;DHT22;8501;49.926;8.404;2023-11-21T08:59:12;10.20;99.90
16767;DHT22;8501;49.926;8.404;2023-11-21T09:01:40;10.20;99.90
16767;DHT22;8501;49.926;8.404;2023-11-21T09:04:06;10.20;99.90
16767;DHT22;8501;49.926;8.404;2023-11-21T09:06:31;10.30;99.90
16767;DHT22;8501;49.926;8.404;2023-11-21T09:08:57;10.20;99.90
16767;DHT22;8501;49.926;8.404;2023-11-21T09:11:23;10.30;99.90
16767;DHT22;8501;49.926;8.404;2023-11-21T09:13:50;10.30;99.90
16767;DHT22;8501;49.926;8.404;2023-11-21T09:16:16;10.30;99.90
16767;DHT22;8501;49.926;8.404;2023-11-21T09:18:42;10.30;99.90
16767;DHT22;8501;49.926;8.404;2023-11-21T09:21:08;10.30;99.90
16767;DHT22;8501;49.926;8.404;2023-11-21T09:23:35;10.30;99.90
16767;DHT22;8501;49.926;8.404;2023-11-21T09:26:00;10.40;99.90
16767;DHT22;8501;49.926;8.404;2023-11-21T09:28:27;10.30;99.90
16767;DHT22;8501;49.926;8.404;2023-11-21T09:30:53;10.40;99.90
16767;DHT22;8501;49.926;8.404;2023-11-21T09:33:19;10.40;99.90
16767;DHT22;8501;49.926;8.404;2023-11-21T09:35:44;10.40;99.90
16767;DHT22;8501;49.926;8.404;2023-11-21T09:38:10;10.40;99.90
16767;DHT22;8501;49.926;8.404;2023-11-21T09:40:37;10.40;99.90
16767;DHT22;8501;49.926;8.404;2023-11-21T09:43:08;10.40;99.90
16767;DHT22;8501;49.926;8.404;2023-11-21T09:45:39;10.40;99.90
16767;DHT22;8501;49.926;8.404;2023-11-21T09:48:06;10.40;99.90
16767;DHT22;8501;49.926;8.404;2023-11-21T09:50:32;10.40;99.90
16767;DHT22;8501;49.926;8.404;2023-11-21T09:53:17;10.40;99.90
16767;DHT22;8501;49.926;8.404;2023-11-21T09:55:44;10.50;99.90
16767;DHT22;8501;49.926;8.404;2023-11-21T09:58:11;10.50;99.90
16767;DHT22;8501;49.926;8.404;2023-11-21T10:00:44;10.50;99.90
16767;DHT22;8501;49.926;8.404;2023-11-21T10:03:10;10.50;99.90
16767;DHT22;8501;49.926;8.404;2023-11-21T10:05:36;10.50;99.90
16767;DHT22;8501;49.926;8.404;2023-11-21T10:08:04;10.50;99.90
16767;DHT22;8501;49.926;8.404;2023-11-21T10:10:32;10.50;99.90
16767;DHT22;8501;49.926;8.404;2023-11-21T10:13:02;10.50;99.90
16767;DHT22;8501;49.926;8.404;2023-11-21T10:15:29;10.50;99.90
16767;DHT22;8501;49.926;8.404;2023-11-21T10:17:56;10.50;99.90
16767;DHT22;8501;49.926;8.404;2023-11-21T10:20:23;10.60;99.90
16767;DHT22;8501;49.926;8.404;2023-11-21T10:22:49;10.60;99.90
16767;DHT22;8501;49.926;8.404;2023-11-21T10:25:15;10.60;99.90
16767;DHT22;8501;49.926;8.404;2023-11-21T10:27:41;10.60;99.90
16767;DHT22;8501;49.926;8.404;2023-11-21T10:30:09;10.60;99.90
16767;DHT22;8501;49.926;8.404;2023-11-21T10:32:38;10.70;99.90
16767;DHT22;8501;49.926;8.404;2023-11-21T10:35:03;10.70;99.90
16767;DHT22;8501;49.926;8.404;2023-11-21T10:37:39;10.70;99.90
16767;DHT22;8501;49.926;8.404;2023-11-21T10:40:09;10.80;99.90
16767;DHT22;8501;49.926;8.404;2023-11-21T10:42:38;10.80;99.90
16767;DHT22;8501;49.926;8.404;2023-11-21T10:45:05;10.80;99.90
16767;DHT22;8501;49.926;8.404;2023-11-21T10:47:38;10.90;99.90
16767;DHT22;8501;49.926;8.404;2023-11-21T10:50:05;10.90;99.90
16767;DHT22;8501;49.926;8.404;2023-11-21T10:52:30;10.90;99.90
16767;DHT22;8501;49.926;8.404;2023-11-21T10:54:56;10.90;99.90
16767;DHT22;8501;49.926;8.404;2023-11-21T10:57:24;10.90;99.90
16767;DHT22;8501;49.926;8.404;2023-11-21T10:59:52;11.00;99.90
16767;DHT22;8501;49.926;8.404;2023-11-21T11:02:23;10.90;99.90
16767;DHT22;8501;49.926;8.404;2023-11-21T11:04:58;11.00;99.90
16767;DHT22;8501;49.926;8.404;2023-11-21T11:07:27;11.00;99.90
16767;DHT22;8501;49.926;8.404;2023-11-21T11:09:54;11.00;99.90
16767;DHT22;8501;49.926;8.404;2023-11-21T11:12:20;11.00;99.90
16767;DHT22;8501;49.926;8.404;2023-11-21T11:14:47;11.00;99.90
16767;DHT22;8501;49.926;8.404;2023-11-21T11:17:13;11.10;99.90
16767;DHT22;8501;49.926;8.404;2023-11-21T11:19:39;11.20;99.90
16767;DHT22;8501;49.926;8.404;2023-11-21T11:22:29;11.30;99.90
16767;DHT22;8501;49.926;8.404;2023-11-21T11:27:59;11.40;99.90
16767;DHT22;8501;49.926;8.404;2023-11-21T11:30:57;11.50;99.90
16767;DHT22;8501;49.926;8.404;2023-11-21T11:38:46;11.60;99.90
16767;DHT22;8501;49.926;8.404;2023-11-21T11:41:24;11.60;99.90
16767;DHT22;8501;49.926;8.404;2023-11-21T11:43:51;11.60;99.90
16767;DHT22;8501;49.926;8.404;2023-11-21T11:46:16;11.60;99.90
16767;DHT22;8501;49.926;8.404;2023-11-21T11:48:42;11.70;99.90
16767;DHT22;8501;49.926;8.404;2023-11-21T11:51:12;11.70;99.90
16767;DHT22;8501;49.926;8.404;2023-11-21T11:53:41;11.70;99.90
16767;DHT22;8501;49.926;8.404;2023-11-21T11:56:29;11.70;99.90
16767;DHT22;8501;49.926;8.404;2023-11-21T11:58:58;11.70;99.90
16767;DHT22;8501;49.926;8.404;2023-11-21T12:01:25;11.80;99.90
16767;DHT22;8501;49.926;8.404;2023-11-21T12:06:45;11.90;99.90
16767;DHT22;8501;49.926;8.404;2023-11-21T12:09:21;11.90;99.90
16767;DHT22;8501;49.926;8.404;2023-11-21T12:11:48;11.90;99.90
16767;DHT22;8501;49.926;8.404;2023-11-21T12:14:15;11.90;99.90
16767;DHT22;8501;49.926;8.404;2023-11-21T12:16:41;11.90;99.90
16767;DHT22;8501;49.926;8.404;2023-11-21T12:19:08;11.90;99.90
16767;DHT22;8501;49.926;8.404;2023-11-21T12:21:33;11.80;99.90
16767;DHT22;8501;49.926;8.404;2023-11-21T12:23:59;11.80;99.90
16767;DHT22;8501;49.926;8.404;2023-11-21T12:26:25;11.90;99.90
16767;DHT22;8501;49.926;8.404;2023-11-21T12:28:54;11.90;99.90
16767;DHT22;8501;49.926;8.404;2023-11-21T12:31:23;12.00;99.90
16767;DHT22;8501;49.926;8.404;2023-11-21T12:33:48;12.00;99.90
16767;DHT22;8501;49.926;8.404;2023-11-21T12:36:15;12.00;99.90
16767;DHT22;8501;49.926;8.404;2023-11-21T12:38:41;12.00;99.90
16767;DHT22;8501;49.926;8.404;2023-11-21T12:41:07;12.00;99.90
16767;DHT22;8501;49.926;8.404;2023-11-21T12:43:33;12.00;99.90
16767;DHT22;8501;49.926;8.404;2023-11-21T12:46:13;12.00;99.90
16767;DHT22;8501;49.926;8.404;2023-11-21T12:48:44;12.00;99.90
16767;DHT22;8501;49.926;8.404;2023-11-21T12:51:11;12.00;99.90
16767;DHT22;8501;49.926;8.404;2023-11-21T12:53:41;12.00;99.90
16767;DHT22;8501;49.926;8.404;2023-11-21T12:56:09;12.00;99.90
16767;DHT22;8501;49.926;8.404;2023-11-21T12:58:37;12.00;99.90
16767;DHT22;8501;49.926;8.404;2023-11-21T13:01:05;11.90;99.90
16767;DHT22;8501;49.926;8.404;2023-11-21T13:03:30;11.80;99.90
16767;DHT22;8501;49.926;8.404;2023-11-21T13:05:56;11.80;99.90
16767;DHT22;8501;49.926;8.404;2023-11-21T13:08:25;11.80;99.90
16767;DHT22;8501;49.926;8.404;2023-11-21T13:10:53;11.80;99.90
16767;DHT22;8501;49.926;8.404;2023-11-21T13:13:19;11.80;99.90
16767;DHT22;8501;49.926;8.404;2023-11-21T13:18:15;11.70;99.90
16767;DHT22;8501;49.926;8.404;2023-11-21T13:20:41;11.70;99.90
16767;DHT22;8501;49.926;8.404;2023-11-21T13:23:09;11.70;99.90
16767;DHT22;8501;49.926;8.404;2023-11-21T13:25:37;11.60;99.90
16767;DHT22;8501;49.926;8.404;2023-11-21T13:28:04;11.60;99.90
16767;DHT22;8501;49.926;8.404;2023-11-21T13:30:30;11.60;99.90
16767;DHT22;8501;49.926;8.404;2023-11-21T13:33:01;11.60;99.90
16767;DHT22;8501;49.926;8.404;2023-11-21T13:35:32;11.60;99.90
16767;DHT22;8501;49.926;8.404;2023-11-21T13:38:10;11.60;99.90
16767;DHT22;8501;49.926;8.404;2023-11-21T13:40:37;11.60;99.90
16767;DHT22;8501;49.926;8.404;2023-11-21T13:43:09;11.50;99.90
16767;DHT22;8501;49.926;8.404;2023-11-21T13:45:42;11.50;99.90
16767;DHT22;8501;49.926;8.404;2023-11-21T13:48:09;11.50;99.90
16767;DHT22;8501;49.926;8.404;2023-11-21T13:50:39;11.50;99.90
16767;DHT22;8501;49.926;8.404;2023-11-21T13:53:12;11.50;99.90
16767;DHT22;8501;49.926;8.404;2023-11-21T13:55:48;11.40;99.90
16767;DHT22;8501;49.926;8.404;2023-11-21T13:58:15;11.40;99.90
16767;DHT22;8501;49.926;8.404;2023-11-21T14:00:48;11.40;99.90
16767;DHT22;8501;49.926;8.404;2023-11-21T14:03:20;11.40;99.90
16767;DHT22;8501;49.926;8.404;2023-11-21T14:05:47;11.40;99.90
16767;DHT22;8501;49.926;8.404;2023-11-21T14:08:18;11.50;99.90
16767;DHT22;8501;49.926;8.404;2023-11-21T14:10:50;11.50;99.90
16767;DHT22;8501;49.926;8.404;2023-11-21T14:13:23;11.50;99.90
16767;DHT22;8501;49.926;8.404;2023-11-21T14:15:50;11.50;99.90
16767;DHT22;8501;49.926;8.404;2023-11-21T14:18:27;11.50;99.90
16767;DHT22;8501;49.926;8.404;2023-11-21T14:20:56;11.60;99.90
16767;DHT22;8501;49.926;8.404;2023-11-21T14:23:21;11.60;99.90
16767;DHT22;8501;49.926;8.404;2023-11-21T14:25:48;11.60;99.90
16767;DHT22;8501;49.926;8.404;2023-11-21T14:28:15;11.60;99.90
16767;DHT22;8501;49.926;8.404;2023-11-21T14:30:40;11.50;99.90
16767;DHT22;8501;49.926;8.404;2023-11-21T14:33:07;11.60;99.90
16767;DHT22;8501;49.926;8.404;2023-11-21T14:35:35;11.60;99.90
16767;DHT22;8501;49.926;8.404;2023-11-21T14:38:03;11.60;99.90
16767;DHT22;8501;49.926;8.404;2023-11-21T14:40:31;11.60;99.90
16767;DHT22;8501;49.926;8.404;2023-11-21T14:43:02;11.60;99.90
16767;DHT22;8501;49.926;8.404;2023-11-21T14:45:33;11.70;99.90
16767;DHT22;8501;49.926;8.404;2023-11-21T14:48:00;11.70;99.90
16767;DHT22;8501;49.926;8.404;2023-11-21T14:50:34;11.80;99.90
16767;DHT22;8501;49.926;8.404;2023-11-21T14:53:15;11.90;99.90
16767;DHT22;8501;49.926;8.404;2023-11-21T14:55:40;11.80;99.90
16767;DHT22;8501;49.926;8.404;2023-11-21T14:58:20;11.70;99.90
16767;DHT22;8501;49.926;8.404;2023-11-21T15:00:53;11.70;99.90
16767;DHT22;8501;49.926;8.404;2023-11-21T15:03:26;11.70;99.90
16767;DHT22;8501;49.926;8.404;2023-11-21T15:06:00;11.60;99.90
16767;DHT22;8501;49.926;8.404;2023-11-21T15:08:49;11.60;99.90
16767;DHT22;8501;49.926;8.404;2023-11-21T15:11:20;11.60;99.90
16767;DHT22;8501;49.926;8.404;2023-11-21T15:13:50;11.50;99.90
16767;DHT22;8501;49.926;8.404;2023-11-21T15:16:17;11.50;99.90
16767;DHT22;8501;49.926;8.404;2023-11-21T15:18:44;11.50;99.90
16767;DHT22;8501;49.926;8.404;2023-11-21T15:21:09;11.50;99.90
16767;DHT22;8501;49.926;8.404;2023-11-21T15:23:37;11.40;99.90
16767;DHT22;8501;49.926;8.404;2023-11-21T15:26:02;11.40;99.90
16767;DHT22;8501;49.926;8.404;2023-11-21T15:28:29;11.40;99.90
16767;DHT22;8501;49.926;8.404;2023-11-21T15:30:55;11.40;99.90
16767;DHT22;8501;49.926;8.404;2023-11-21T15:33:21;11.40;99.90
16767;DHT22;8501;49.926;8.404;2023-11-21T15:35:46;11.40;99.90
16767;DHT22;8501;49.926;8.404;2023-11-21T15:38:12;11.30;99.90
16767;DHT22;8501;49.926;8.404;2023-11-21T15:40:41;11.30;99.90
16767;DHT22;8501;49.926;8.404;2023-11-21T15:43:08;11.40;99.90
16767;DHT22;8501;49.926;8.404;2023-11-21T15:45:34;11.30;99.90
16767;DHT22;8501;49.926;8.404;2023-11-21T15:47:59;11.30;99.90
16767;DHT22;8501;49.926;8.404;2023-11-21T15:50:26;11.30;99.90
16767;DHT22;8501;49.926;8.404;2023-11-21T15:52:52;11.30;99.90
16767;DHT22;8501;49.926;8.404;2023-11-21T15:55:17;11.30;99.90
16767;DHT22;8501;49.926;8.404;2023-11-21T15:57:44;11.30;99.90
16767;DHT22;8501;49.926;8.404;2023-11-21T16:00:11;11.30;99.90
16767;DHT22;8501;49.926;8.404;2023-11-21T16:02:43;11.30;99.90